createdAt,value
2022-11-24T00:01:03.972Z,75.77
2022-11-24T00:03:30.809Z,75.39
2022-11-24T00:06:02.840Z,75.50
2022-11-24T00:08:29.541Z,75.38
2022-11-24T00:10:56.264Z,74.87
2022-11-24T00:13:22.987Z,75.75
2022-11-24T00:15:49.710Z,76.43
2022-11-24T00:18:16.397Z,75.80
2022-11-24T00:20:43.106Z,75.91
2022-11-24T00:23:09.805Z,76.96
2022-11-24T00:25:36.693Z,78.20
2022-11-24T00:28:03.431Z,77.48
2022-11-24T00:30:30.200Z,77.57
2022-11-24T00:32:56.917Z,76.93
2022-11-24T00:35:23.701Z,76.98
2022-11-24T00:37:50.377Z,77.68
2022-11-24T00:40:17.177Z,77.92
2022-11-24T00:42:43.908Z,78.14
2022-11-24T00:45:14.145Z,78.19
2022-11-24T00:47:41.093Z,78.15
2022-11-24T00:50:08.076Z,78.20
2022-11-24T00:52:34.777Z,77.93
2022-11-24T00:55:01.500Z,77.90
2022-11-24T00:57:28.171Z,78.52
2022-11-24T00:59:54.844Z,78.06
2022-11-24T01:02:21.584Z,77.70
2022-11-24T01:04:48.327Z,78.03
2022-11-24T01:07:15.079Z,77.82
2022-11-24T01:09:43.269Z,77.54
2022-11-24T01:12:09.968Z,79.09
2022-11-24T01:14:36.862Z,78.65
2022-11-24T01:17:04.196Z,78.38
2022-11-24T01:19:30.897Z,79.09
2022-11-24T01:21:57.612Z,78.44
2022-11-24T01:24:24.282Z,78.08
2022-11-24T01:26:51.033Z,78.78
2022-11-24T01:29:17.758Z,78.29
2022-11-24T01:31:44.515Z,79.06
2022-11-24T01:34:11.261Z,78.94
2022-11-24T01:36:38.005Z,79.55
2022-11-24T01:39:04.966Z,79.15
2022-11-24T01:41:31.695Z,78.27
2022-11-24T01:43:58.395Z,77.78
2022-11-24T01:46:36.179Z,77.88
2022-11-24T01:49:09.061Z,78.37
2022-11-24T01:51:43.442Z,78.33
2022-11-24T01:54:17.758Z,78.34
2022-11-24T01:56:46.839Z,77.91
2022-11-24T01:59:14.749Z,78.31
2022-11-24T02:01:41.477Z,78.05
2022-11-24T02:04:11.674Z,79.17
2022-11-24T02:06:40.104Z,79.06
2022-11-24T02:09:06.728Z,80.02
2022-11-24T02:11:39.170Z,79.35
2022-11-24T02:14:07.955Z,79.36
2022-11-24T02:16:34.706Z,79.34
2022-11-24T02:19:02.469Z,78.44
2022-11-24T02:21:29.169Z,79.10
2022-11-24T02:24:21.594Z,78.46
2022-11-24T02:26:49.717Z,78.91
2022-11-24T02:29:16.654Z,79.42
2022-11-24T02:31:51.456Z,79.05
2022-11-24T02:34:18.162Z,78.98
2022-11-24T02:36:44.836Z,79.00
2022-11-24T02:39:12.963Z,79.99
2022-11-24T02:41:46.548Z,79.54
2022-11-24T02:44:15.756Z,78.88
2022-11-24T02:46:42.520Z,78.81
2022-11-24T02:49:09.272Z,78.59
2022-11-24T02:51:36.053Z,79.03
2022-11-24T02:54:02.840Z,79.18
2022-11-24T02:56:29.667Z,78.75
2022-11-24T02:58:56.376Z,79.03
2022-11-24T03:01:23.136Z,79.90
2022-11-24T03:03:49.859Z,79.55
2022-11-24T03:06:16.550Z,79.94
2022-11-24T03:08:44.028Z,79.87
2022-11-24T03:11:10.701Z,80.17
2022-11-24T03:13:37.428Z,80.21
2022-11-24T03:16:08.515Z,80.20
2022-11-24T03:18:35.217Z,79.53
2022-11-24T03:21:01.923Z,79.67
2022-11-24T03:23:28.616Z,79.99
2022-11-24T03:25:55.302Z,79.56
2022-11-24T03:28:22.060Z,79.95
2022-11-24T03:30:49.405Z,79.75
2022-11-24T03:33:16.116Z,80.53
2022-11-24T03:35:42.933Z,80.17
2022-11-24T03:38:09.644Z,79.86
2022-11-24T03:40:36.365Z,79.37
2022-11-24T03:43:03.083Z,79.46
2022-11-24T03:45:45.566Z,79.99
2022-11-24T03:48:14.117Z,79.61
2022-11-24T03:50:40.853Z,79.45
2022-11-24T03:53:07.565Z,79.31
2022-11-24T03:55:34.271Z,79.09
2022-11-24T03:58:00.961Z,78.67
2022-11-24T04:00:28.103Z,78.65
2022-11-24T04:02:54.819Z,78.55
2022-11-24T04:05:21.592Z,79.39
2022-11-24T04:07:48.317Z,79.06
2022-11-24T04:10:15.165Z,79.29
2022-11-24T04:12:44.630Z,79.29
2022-11-24T04:15:14.240Z,79.36
2022-11-24T04:17:41.053Z,79.00
2022-11-24T04:20:08.763Z,78.13
2022-11-24T04:22:35.889Z,78.48
2022-11-24T04:25:03.468Z,78.77
2022-11-24T04:27:30.373Z,77.86
2022-11-24T04:29:57.102Z,78.45
2022-11-24T04:32:23.809Z,77.88
2022-11-24T04:34:50.504Z,78.40
2022-11-24T04:37:17.274Z,78.94
2022-11-24T04:39:44.947Z,78.17
2022-11-24T04:42:12.064Z,79.35
2022-11-24T04:44:39.020Z,78.58
2022-11-24T04:47:05.862Z,79.19
2022-11-24T04:49:32.734Z,79.17
2022-11-24T04:51:59.819Z,80.23
2022-11-24T04:54:26.543Z,80.63
2022-11-24T04:56:53.512Z,81.06
2022-11-24T04:59:20.309Z,80.50
2022-11-24T05:01:47.352Z,80.98
2022-11-24T05:04:15.245Z,81.11
2022-11-24T05:06:42.404Z,81.71
2022-11-24T05:09:09.547Z,81.50
2022-11-24T05:11:36.347Z,80.28
2022-11-24T05:14:03.162Z,80.31
2022-11-24T05:16:29.923Z,80.04
2022-11-24T05:18:56.817Z,79.54
2022-11-24T05:21:23.614Z,80.09
2022-11-24T05:23:50.420Z,79.53
2022-11-24T05:26:17.152Z,79.01
2022-11-24T05:28:43.900Z,79.10
2022-11-24T05:31:10.734Z,79.41
2022-11-24T05:33:38.340Z,78.56
2022-11-24T05:36:06.646Z,79.08
2022-11-24T05:38:33.899Z,78.52
2022-11-24T05:41:04.048Z,78.74
2022-11-24T05:43:30.873Z,79.03
2022-11-24T05:46:01.668Z,78.29
2022-11-24T05:48:28.883Z,77.92
2022-11-24T05:50:57.159Z,78.28
2022-11-24T05:53:25.714Z,78.17
2022-11-24T05:55:52.488Z,78.46
2022-11-24T05:58:19.258Z,79.19
2022-11-24T06:00:45.981Z,79.55
2022-11-24T06:03:12.885Z,79.80
2022-11-24T06:05:39.734Z,80.14
2022-11-24T06:08:06.505Z,79.51
2022-11-24T06:10:33.220Z,79.23
2022-11-24T06:13:00.009Z,79.45
2022-11-24T06:15:26.805Z,77.82
2022-11-24T06:17:56.619Z,78.07
2022-11-24T06:20:28.283Z,78.31
2022-11-24T06:22:58.029Z,77.99
2022-11-24T06:25:24.779Z,77.61
2022-11-24T06:27:51.459Z,77.72
2022-11-24T06:30:18.317Z,78.11
2022-11-24T06:32:49.304Z,78.91
2022-11-24T06:35:16.584Z,77.83
2022-11-24T06:37:43.281Z,78.76
2022-11-24T06:40:10.387Z,78.27
2022-11-24T06:42:37.681Z,78.19
2022-11-24T06:45:09.012Z,77.94
2022-11-24T06:47:36.850Z,77.49
2022-11-24T06:50:04.034Z,77.17
2022-11-24T06:52:30.758Z,76.72
2022-11-24T06:54:57.586Z,76.56
2022-11-24T06:57:24.514Z,77.02
2022-11-24T06:59:51.354Z,76.60
2022-11-24T07:02:18.085Z,76.08
2022-11-24T07:04:44.884Z,76.25
2022-11-24T07:07:11.735Z,76.20
2022-11-24T07:09:38.517Z,75.67
2022-11-24T07:12:06.056Z,76.02
2022-11-24T07:14:33.649Z,76.31
2022-11-24T07:17:02.520Z,76.01
2022-11-24T07:19:29.372Z,74.80
2022-11-24T07:21:56.197Z,75.04
2022-11-24T07:24:22.931Z,74.99
2022-11-24T07:26:49.660Z,74.33
2022-11-24T07:29:16.528Z,75.17
2022-11-24T07:31:43.522Z,74.53
2022-11-24T07:34:10.536Z,71.63
2022-11-24T07:36:37.294Z,68.47
2022-11-24T07:39:06.967Z,65.37
2022-11-24T07:41:33.771Z,65.40
2022-11-24T07:44:00.602Z,63.24
2022-11-24T07:46:27.395Z,62.17
2022-11-24T07:48:54.218Z,61.56
2022-11-24T07:51:20.884Z,62.03
2022-11-24T07:53:47.676Z,63.05
2022-11-24T07:56:14.533Z,63.74
2022-11-24T07:58:41.401Z,64.59
2022-11-24T08:01:16.716Z,65.54
2022-11-24T08:03:43.796Z,66.68
2022-11-24T08:06:32.258Z,67.66
2022-11-24T08:08:58.544Z,68.64
2022-11-24T08:11:25.505Z,69.04
2022-11-24T08:13:52.215Z,69.37
2022-11-24T08:16:19.742Z,70.66
2022-11-24T08:18:54.096Z,71.52
2022-11-24T08:21:23.445Z,71.71
2022-11-24T08:23:54.286Z,72.70
2022-11-24T08:26:21.188Z,72.76
2022-11-24T08:28:48.270Z,72.92
2022-11-24T08:31:18.848Z,73.45
2022-11-24T08:33:46.518Z,73.17
2022-11-24T08:36:18.514Z,73.99
2022-11-24T08:38:45.915Z,73.87
2022-11-24T08:41:15.004Z,75.04
2022-11-24T08:43:42.050Z,75.63
2022-11-24T08:46:11.368Z,76.34
2022-11-24T08:48:38.504Z,75.09
2022-11-24T08:51:13.170Z,76.28
2022-11-24T08:53:40.744Z,77.17
2022-11-24T08:56:09.183Z,77.97
2022-11-24T08:58:36.533Z,77.31
2022-11-24T09:01:05.923Z,83.94
2022-11-24T09:03:32.751Z,78.98
2022-11-24T09:05:59.482Z,77.27
2022-11-24T09:08:26.288Z,77.29
2022-11-24T09:10:52.973Z,77.56
2022-11-24T09:13:19.713Z,78.63
2022-11-24T09:15:46.574Z,78.54
2022-11-24T09:18:13.351Z,78.50
2022-11-24T09:20:40.706Z,78.19
2022-11-24T09:23:07.433Z,76.92
2022-11-24T09:25:35.491Z,76.77
2022-11-24T09:28:02.563Z,75.98
2022-11-24T09:30:29.492Z,76.98
2022-11-24T09:32:57.020Z,75.99
2022-11-24T09:35:24.792Z,74.36
2022-11-24T09:37:51.552Z,74.30
2022-11-24T09:40:18.705Z,74.07
2022-11-24T09:43:02.897Z,72.27
2022-11-24T09:46:04.318Z,73.47
2022-11-24T09:48:35.181Z,74.05
2022-11-24T09:51:04.338Z,72.69
2022-11-24T09:53:49.505Z,73.09
2022-11-24T09:56:21.960Z,72.70
2022-11-24T09:58:52.268Z,71.41
2022-11-24T10:01:29.991Z,71.63
2022-11-24T10:04:02.568Z,72.17
2022-11-24T10:06:44.641Z,72.27
2022-11-24T10:09:42.353Z,72.02
2022-11-24T10:12:21.349Z,71.65
2022-11-24T10:14:50.922Z,72.64
2022-11-24T10:17:26.980Z,71.05
2022-11-24T10:20:09.991Z,71.04
2022-11-24T10:22:43.407Z,70.38
2022-11-24T10:25:17.547Z,72.54
2022-11-24T10:27:47.195Z,71.28
2022-11-24T10:30:20.140Z,71.21
2022-11-24T10:32:49.844Z,71.31
2022-11-24T10:35:22.533Z,71.38
2022-11-24T10:37:58.403Z,71.41
2022-11-24T10:43:21.789Z,71.01
2022-11-24T10:45:48.646Z,71.43
2022-11-24T10:48:22.539Z,71.11
2022-11-24T10:50:49.327Z,70.84
2022-11-24T10:53:29.647Z,71.49
2022-11-24T10:55:56.476Z,71.88
2022-11-24T10:58:38.022Z,71.18
2022-11-24T11:01:14.681Z,72.58
2022-11-24T11:03:48.026Z,71.93
2022-11-24T11:06:26.473Z,71.39
2022-11-24T11:09:17.862Z,71.11
2022-11-24T11:11:47.121Z,72.04
2022-11-24T11:14:31.278Z,71.94
2022-11-24T11:16:59.042Z,72.15
2022-11-24T11:19:50.812Z,71.13
2022-11-24T11:22:26.120Z,71.25
2022-11-24T11:25:03.993Z,71.46
2022-11-24T11:27:30.847Z,71.04
2022-11-24T11:35:51.347Z,69.95
2022-11-24T11:38:18.760Z,70.83
2022-11-24T11:40:49.999Z,70.58
2022-11-24T11:43:29.155Z,70.29
2022-11-24T11:46:11.895Z,70.81
2022-11-24T11:48:43.714Z,70.63
2022-11-24T11:52:02.325Z,68.76
2022-11-24T11:55:02.798Z,69.08
2022-11-24T11:57:37.744Z,69.44
2022-11-24T12:00:10.490Z,69.90
2022-11-24T12:02:48.598Z,71.10
2022-11-24T12:05:41.629Z,72.16
2022-11-24T12:08:21.660Z,72.40
2022-11-24T12:10:57.490Z,72.14
2022-11-24T12:13:24.358Z,71.08
2022-11-24T12:16:07.746Z,71.90
2022-11-24T12:19:04.963Z,69.90
2022-11-24T12:21:36.151Z,70.18
2022-11-24T12:24:11.928Z,68.08
2022-11-24T12:26:58.179Z,69.30
2022-11-24T12:29:48.159Z,69.20
2022-11-24T12:32:34.089Z,67.92
2022-11-24T12:35:06.609Z,67.74
2022-11-24T12:38:00.354Z,67.61
2022-11-24T12:40:51.949Z,66.38
2022-11-24T12:43:28.339Z,66.62
2022-11-24T12:46:00.310Z,66.99
2022-11-24T12:48:29.112Z,65.80
2022-11-24T12:50:56.887Z,65.64
2022-11-24T12:53:26.948Z,66.08
2022-11-24T12:55:54.757Z,65.37
2022-11-24T12:58:51.949Z,64.04
2022-11-24T13:01:58.645Z,63.73
2022-11-24T13:04:34.781Z,63.77
2022-11-24T13:07:26.505Z,64.42
2022-11-24T13:10:47.000Z,64.14
2022-11-24T13:13:15.055Z,64.38
2022-11-24T13:18:47.440Z,64.25
2022-11-24T13:21:33.047Z,63.92
2022-11-24T13:24:27.224Z,64.52
2022-11-24T13:27:14.259Z,64.27
2022-11-24T13:29:42.072Z,64.18
2022-11-24T13:32:08.851Z,64.57
2022-11-24T13:34:41.613Z,64.78
2022-11-24T13:37:27.309Z,64.93
2022-11-24T13:40:13.534Z,64.04
2022-11-24T13:42:56.252Z,64.54
2022-11-24T13:45:46.858Z,64.28
2022-11-24T13:48:20.105Z,64.63
2022-11-24T13:50:50.324Z,65.18
2022-11-24T13:53:45.961Z,65.20
2022-11-24T13:56:12.686Z,64.44
2022-11-24T13:58:42.499Z,64.31
2022-11-24T14:01:12.178Z,63.98
2022-11-24T14:04:07.072Z,63.51
2022-11-24T14:06:34.920Z,63.02
2022-11-24T14:09:20.519Z,62.32
2022-11-24T14:11:59.775Z,62.37
2022-11-24T14:14:26.764Z,60.74
2022-11-24T14:17:14.694Z,59.05
2022-11-24T14:19:42.538Z,59.05
2022-11-24T14:22:21.749Z,59.30
2022-11-24T14:24:56.923Z,59.31
2022-11-24T14:27:28.809Z,58.85
2022-11-24T14:30:03.589Z,59.79
2022-11-24T14:32:30.492Z,58.83
2022-11-24T14:34:57.382Z,58.79
2022-11-24T14:37:24.269Z,59.03
2022-11-24T14:39:51.060Z,59.58
2022-11-24T14:42:23.258Z,59.86
2022-11-24T14:44:59.131Z,59.15
2022-11-24T14:47:31.994Z,59.23
2022-11-24T14:50:08.665Z,59.56
2022-11-24T14:52:35.626Z,59.27
2022-11-24T14:55:22.095Z,59.53
2022-11-24T14:57:49.241Z,60.08
2022-11-24T15:00:25.185Z,59.74
2022-11-24T15:03:07.488Z,59.67
2022-11-24T15:05:58.467Z,59.86
2022-11-24T15:08:26.857Z,59.34
2022-11-24T15:10:59.627Z,59.50
2022-11-24T15:13:26.828Z,59.75
2022-11-24T15:16:02.121Z,60.34
2022-11-24T15:18:44.445Z,59.86
2022-11-24T15:21:17.451Z,60.47
2022-11-24T15:24:04.827Z,60.84
2022-11-24T15:26:36.691Z,60.72
2022-11-24T15:29:06.776Z,60.58
2022-11-24T15:31:33.663Z,61.61
2022-11-24T15:34:00.486Z,61.93
2022-11-24T15:36:27.294Z,61.72
2022-11-24T15:38:54.044Z,61.59
2022-11-24T15:41:22.405Z,61.29
2022-11-24T15:43:49.238Z,62.20
2022-11-24T15:46:16.400Z,61.06
2022-11-24T15:48:43.235Z,61.35
2022-11-24T15:51:13.428Z,61.68
2022-11-24T15:53:44.392Z,62.21
2022-11-24T15:56:26.182Z,62.01
2022-11-24T15:58:53.230Z,62.06
2022-11-24T16:01:21.252Z,61.80
2022-11-24T16:03:49.006Z,62.29
2022-11-24T16:06:24.585Z,62.59
2022-11-24T16:08:52.708Z,62.61
2022-11-24T16:11:19.506Z,62.66
2022-11-24T16:13:51.988Z,62.58
2022-11-24T16:16:20.446Z,62.41
2022-11-24T16:18:47.238Z,63.12
2022-11-24T16:21:14.227Z,63.11
2022-11-24T16:23:41.009Z,63.17
2022-11-24T16:26:07.862Z,63.70
2022-11-24T16:28:34.763Z,63.76
2022-11-24T16:31:01.742Z,63.19
2022-11-24T16:33:29.978Z,63.84
2022-11-24T16:35:56.798Z,63.65
2022-11-24T16:38:23.785Z,64.01
2022-11-24T16:40:52.571Z,63.98
2022-11-24T16:43:19.335Z,65.34
2022-11-24T16:45:46.275Z,65.00
2022-11-24T16:48:13.122Z,65.02
2022-11-24T16:50:39.908Z,65.03
2022-11-24T16:53:06.690Z,65.50
2022-11-24T16:55:33.454Z,65.22
2022-11-24T16:58:03.677Z,65.88
2022-11-24T17:00:30.470Z,66.04
2022-11-24T17:02:57.309Z,66.05
2022-11-24T17:05:24.531Z,66.36
2022-11-24T17:07:51.340Z,65.89
2022-11-24T17:10:18.100Z,66.49
2022-11-24T17:12:44.969Z,65.51
2022-11-24T17:20:45.563Z,62.20
2022-11-24T17:23:12.337Z,61.19
2022-11-24T17:25:39.109Z,62.09
2022-11-24T17:28:05.838Z,61.97
2022-11-24T17:30:32.824Z,61.71
2022-11-24T17:32:59.595Z,61.29
2022-11-24T17:35:26.388Z,61.73
2022-11-24T17:37:53.158Z,61.88
2022-11-24T17:40:28.459Z,61.84
2022-11-24T17:42:59.838Z,61.84
2022-11-24T17:45:27.624Z,61.63
2022-11-24T17:47:55.055Z,61.82
2022-11-24T17:50:25.630Z,62.51
2022-11-24T17:52:53.263Z,62.28
2022-11-24T17:55:20.190Z,61.90
2022-11-24T17:57:46.965Z,62.44
2022-11-24T18:00:14.366Z,62.64
2022-11-24T18:02:41.916Z,62.70
2022-11-24T18:05:09.081Z,61.38
2022-11-24T18:07:36.751Z,62.08
2022-11-24T18:10:04.078Z,61.91
2022-11-24T18:12:30.858Z,61.39
2022-11-24T18:14:57.622Z,61.52
2022-11-24T18:17:24.620Z,61.73
2022-11-24T18:19:51.371Z,61.60
2022-11-24T18:22:21.050Z,61.82
2022-11-24T18:24:53.983Z,62.23
2022-11-24T18:27:20.884Z,61.92
2022-11-24T18:29:50.878Z,61.83
2022-11-24T18:32:20.151Z,62.09
2022-11-24T18:34:46.892Z,62.18
2022-11-24T18:37:14.957Z,62.61
2022-11-24T18:39:42.374Z,63.16
2022-11-24T18:42:10.037Z,61.95
2022-11-24T18:44:37.408Z,62.25
2022-11-24T18:47:04.490Z,61.70
2022-11-24T18:49:31.990Z,61.10
2022-11-24T18:51:59.349Z,60.72
2022-11-24T18:54:29.500Z,61.33
2022-11-24T18:57:01.733Z,61.02
2022-11-24T18:59:29.943Z,60.48
2022-11-24T19:01:58.083Z,59.32
2022-11-24T19:04:26.313Z,59.62
2022-11-24T19:06:53.381Z,59.55
2022-11-24T19:09:22.603Z,59.87
2022-11-24T19:11:49.897Z,59.60
2022-11-24T19:14:17.940Z,60.10
2022-11-24T19:16:47.730Z,60.36
2022-11-24T19:19:15.164Z,60.13
2022-11-24T19:21:41.974Z,60.20
2022-11-24T19:24:10.202Z,61.33
2022-11-24T19:26:37.563Z,61.11
2022-11-24T19:29:05.746Z,60.92
2022-11-24T19:31:33.758Z,61.38
2022-11-24T19:34:02.906Z,60.86
2022-11-24T19:36:29.891Z,60.90
2022-11-24T19:38:57.765Z,60.17
2022-11-24T19:41:27.358Z,60.20
2022-11-24T19:43:54.844Z,60.50
2022-11-24T19:46:22.962Z,60.77
2022-11-24T19:48:50.901Z,60.74
2022-11-24T19:51:20.373Z,61.91
2022-11-24T19:53:47.771Z,60.87
2022-11-24T19:56:20.154Z,61.15
2022-11-24T19:58:47.980Z,61.71
2022-11-24T20:01:24.737Z,61.15
2022-11-24T20:04:13.190Z,60.89
2022-11-24T20:06:41.869Z,61.61
2022-11-24T20:09:10.615Z,61.43
2022-11-24T20:11:37.897Z,60.87
2022-11-24T20:14:05.268Z,60.59
2022-11-24T20:16:33.406Z,60.33
2022-11-24T20:19:06.369Z,61.37
2022-11-24T20:21:34.351Z,60.72
2022-11-24T20:24:03.858Z,60.99
2022-11-24T20:26:36.104Z,60.95
2022-11-24T20:29:04.241Z,59.72
2022-11-24T20:31:36.934Z,61.07
2022-11-24T20:34:05.654Z,60.81
2022-11-24T20:36:33.994Z,60.42
2022-11-24T20:39:02.206Z,60.46
2022-11-24T20:41:31.916Z,60.00
2022-11-24T20:44:00.954Z,59.65
2022-11-24T20:46:30.134Z,60.32
2022-11-24T20:48:57.945Z,60.14
2022-11-24T20:51:30.330Z,60.47
2022-11-24T20:53:59.632Z,60.68
2022-11-24T20:56:28.712Z,60.44
2022-11-24T20:58:56.443Z,60.82
2022-11-24T21:01:29.137Z,63.27
2022-11-24T21:03:58.762Z,63.33
2022-11-24T21:06:26.527Z,63.60
2022-11-24T21:08:53.301Z,63.89
2022-11-24T21:11:21.106Z,63.52
2022-11-24T21:13:48.949Z,63.58
2022-11-24T21:16:24.232Z,63.05
2022-11-24T21:18:52.153Z,62.89
2022-11-24T21:21:20.189Z,63.68
2022-11-24T21:23:47.600Z,62.96
2022-11-24T21:26:17.217Z,63.52
2022-11-24T21:28:45.873Z,63.37
2022-11-24T21:31:15.332Z,63.24
2022-11-24T21:33:44.902Z,63.65
2022-11-24T21:36:14.636Z,63.96
2022-11-24T21:38:42.681Z,63.99
2022-11-24T21:41:10.929Z,64.40
2022-11-24T21:43:38.642Z,64.31
2022-11-24T21:46:07.223Z,63.72
2022-11-24T21:48:35.766Z,63.87
2022-11-24T21:51:04.177Z,63.05
2022-11-24T21:53:35.815Z,63.76
2022-11-24T21:56:07.728Z,63.10
2022-11-24T21:58:34.496Z,63.11
2022-11-24T22:01:03.030Z,63.31
2022-11-24T22:03:30.336Z,63.57
2022-11-24T22:05:58.558Z,63.44
2022-11-24T22:08:26.297Z,63.43
2022-11-24T22:10:53.277Z,63.63
2022-11-24T22:13:20.295Z,64.03
2022-11-24T22:15:47.026Z,62.78
2022-11-24T22:18:13.750Z,63.16
2022-11-24T22:20:40.552Z,61.22
2022-11-24T22:23:07.316Z,61.09
2022-11-24T22:25:34.337Z,60.99
2022-11-24T22:28:01.156Z,60.59
2022-11-24T22:30:27.921Z,59.42
2022-11-24T22:32:54.779Z,59.69
2022-11-24T22:35:21.520Z,59.99
2022-11-24T22:37:48.219Z,59.99
2022-11-24T22:40:15.045Z,60.57
2022-11-24T22:42:41.752Z,60.57
2022-11-24T22:45:08.988Z,61.22
2022-11-24T22:47:35.699Z,62.38
2022-11-24T22:50:02.475Z,62.34
2022-11-24T22:52:29.281Z,62.33
2022-11-24T22:54:56.096Z,62.50
2022-11-24T22:57:22.831Z,63.12
2022-11-24T22:59:49.545Z,63.16
2022-11-24T23:02:16.316Z,63.45
2022-11-24T23:04:43.088Z,63.52
2022-11-24T23:07:09.866Z,63.14
2022-11-24T23:09:36.636Z,63.25
2022-11-24T23:12:03.479Z,63.48
2022-11-24T23:14:30.296Z,63.48
2022-11-24T23:16:57.141Z,63.65
2022-11-24T23:19:23.922Z,63.52
2022-11-24T23:21:50.780Z,63.54
2022-11-24T23:24:17.723Z,64.16
2022-11-24T23:26:44.463Z,63.55
2022-11-24T23:29:11.687Z,63.44
2022-11-24T23:31:40.268Z,64.06
2022-11-24T23:34:07.157Z,64.26
2022-11-24T23:36:33.983Z,64.76
2022-11-24T23:39:05.919Z,64.31
2022-11-24T23:41:33.017Z,63.88
2022-11-24T23:44:00.241Z,64.04
2022-11-24T23:46:27.908Z,64.49
2022-11-24T23:48:55.528Z,64.36
2022-11-24T23:51:27.506Z,63.98
2022-11-24T23:53:54.962Z,63.98
2022-11-24T23:56:24.072Z,64.10
2022-11-24T23:58:51.271Z,63.99
